Time;durP1;ratioP1;P1;durP2;ratioP2;P2;SDS_P1;SDS_P2;PMS_P1;PMS_P2;Temp;Humidity;BMP_temperature;BMP_pressure;BME280_temperature;BME280_humidity;BME280_pressure;Samples;Min_cycle;Max_cycle;Signal;HPM_P1;HPM_P2
2023/11/22 00:00:47;;;;;;;46.28;27.15;;;;;;;8.51;81.33;99450.91;5052064;28;20036;-81
2023/11/22 00:03:12;;;;;;;47.35;28.15;;;;;;;8.11;84.07;99429.97;5056869;28;20021;-81
2023/11/22 00:05:37;;;;;;;48.63;26.33;;;;;;;8.48;82.42;99433.56;5051476;28;20493;-82
2023/11/22 00:08:03;;;;;;;44.53;25.17;;;;;;;8.62;81.82;99427.06;5050068;28;20106;-83
2023/11/22 00:10:28;;;;;;;43.53;25.35;;;;;;;8.36;82.92;99422.81;5049784;28;20501;-81
2023/11/22 00:12:54;;;;;;;39.05;22.63;;;;;;;8.27;83.81;99424.09;5058961;28;20047;-83
2023/11/22 00:15:20;;;;;;;32.85;21.80;;;;;;;8.33;83.92;99449.81;5053083;28;20422;-83
2023/11/22 00:17:45;;;;;;;38.28;23.15;;;;;;;8.03;85.38;99439.06;5049629;28;20123;-81
2023/11/22 00:20:11;;;;;;;37.10;23.30;;;;;;;8.32;83.82;99418.16;5050857;28;20067;-82
2023/11/22 00:22:36;;;;;;;37.45;23.33;;;;;;;8.62;82.11;99455.47;5058244;28;20123;-83
2023/11/22 00:25:03;;;;;;;37.33;22.75;;;;;;;8.53;82.54;99438.22;5068933;28;20037;-83
2023/11/22 00:27:32;;;;;;;36.95;21.25;;;;;;;8.17;85.85;99432.59;5069720;28;20027;-82
2023/11/22 00:29:58;;;;;;;31.42;20.92;;;;;;;8.17;85.37;99450.34;5069025;28;20036;-81
2023/11/22 00:32:23;;;;;;;35.80;22.15;;;;;;;8.28;84.26;99452.31;5060288;28;20028;-82
2023/11/22 00:34:49;;;;;;;41.00;25.30;;;;;;;8.39;82.83;99448.13;5052937;28;20028;-82
2023/11/22 00:37:15;;;;;;;46.85;27.77;;;;;;;8.34;83.12;99446.13;5049530;28;20035;-82
2023/11/22 00:39:41;;;;;;;36.75;25.30;;;;;;;8.27;83.91;99445.38;5049398;28;20041;-82
2023/11/22 00:42:07;;;;;;;44.45;25.90;;;;;;;8.40;83.88;99445.25;5050864;28;20036;-81
2023/11/22 00:44:32;;;;;;;40.58;26.00;;;;;;;8.34;83.92;99437.34;5067733;28;20029;-83
2023/11/22 00:46:58;;;;;;;38.60;24.77;;;;;;;7.99;85.68;99432.56;5069414;28;20040;-85
2023/11/22 00:49:24;;;;;;;43.95;23.73;;;;;;;7.92;87.14;99459.16;5069144;28;20071;-82
2023/11/22 00:51:50;;;;;;;38.25;22.35;;;;;;;8.16;85.55;99454.06;5063913;28;20017;-81
2023/11/22 00:54:16;;;;;;;38.33;24.05;;;;;;;8.24;84.61;99446.63;5050984;28;20047;-82
2023/11/22 00:56:42;;;;;;;36.75;23.35;;;;;;;8.05;85.78;99463.56;5048928;28;20025;-83
2023/11/22 00:59:08;;;;;;;38.92;23.20;;;;;;;8.17;83.62;99429.94;5049102;28;20390;-82
2023/11/22 01:01:36;;;;;;;37.13;22.88;;;;;;;8.44;83.32;99457.09;5048954;28;20185;-81
2023/11/22 01:04:01;;;;;;;34.78;21.63;;;;;;;8.41;82.83;99449.53;5061004;28;20044;-82
2023/11/22 01:06:28;;;;;;;35.03;21.75;;;;;;;8.16;84.63;99448.75;5070268;28;20032;-83
2023/11/22 01:08:54;;;;;;;36.42;22.02;;;;;;;8.12;85.81;99452.88;5068521;28;20024;-81
2023/11/22 01:11:19;;;;;;;37.55;22.55;;;;;;;7.80;85.70;99407.78;5069002;28;20024;-81
2023/11/22 01:13:46;;;;;;;32.80;21.42;;;;;;;7.99;86.09;99444.00;5058262;28;20054;-81
2023/11/22 01:16:13;;;;;;;34.22;21.88;;;;;;;7.80;88.09;99445.75;5068815;28;20020;-81
2023/11/22 01:18:39;;;;;;;35.00;21.70;;;;;;;8.05;86.90;99437.81;5069892;28;20374;-81
2023/11/22 01:21:08;;;;;;;36.17;22.23;;;;;;;7.85;87.33;99469.03;5068579;28;20128;-82
2023/11/22 01:23:33;;;;;;;35.35;21.80;;;;;;;7.42;87.57;99408.69;5056536;28;20107;-81
2023/11/22 01:25:59;;;;;;;35.08;21.92;;;;;;;7.55;88.46;99443.06;5053665;28;20120;-81
2023/11/22 01:28:27;;;;;;;39.08;24.13;;;;;;;7.41;89.21;99436.22;5048833;28;20064;-82
2023/11/22 01:30:55;;;;;;;40.33;26.38;;;;;;;7.44;89.34;99436.63;5048397;28;20082;-82
2023/11/22 01:33:22;;;;;;;43.90;27.48;;;;;;;7.99;86.41;99449.31;5062246;28;20027;-83
2023/11/22 01:35:48;;;;;;;45.15;29.48;;;;;;;8.04;86.74;99436.16;5048741;28;20072;-81
2023/11/22 01:38:14;;;;;;;45.10;27.08;;;;;;;7.60;90.29;99427.34;5050070;28;20063;-81
2023/11/22 01:40:50;;;;;;;49.33;29.02;;;;;;;7.76;90.34;99411.91;5048396;28;20067;-83
2023/11/22 01:43:21;;;;;;;47.67;29.52;;;;;;;8.00;88.92;99413.75;5057699;28;20481;-81
2023/11/22 01:45:46;;;;;;;47.58;27.33;;;;;;;7.88;90.02;99419.97;5048913;28;20510;-82
2023/11/22 01:48:12;;;;;;;47.75;29.38;;;;;;;7.95;89.71;99405.63;5048218;28;20043;-81
2023/11/22 01:50:40;;;;;;;47.85;29.77;;;;;;;8.19;88.18;99417.25;5047922;28;20048;-81
2023/11/22 01:53:07;;;;;;;;;;;;;;;8.19;88.73;99427.06;5048747;28;20059;-82
2023/11/22 01:55:34;;;;;;;48.55;27.98;;;;;;;7.98;90.69;99430.94;5048418;28;20595;-81
2023/11/22 01:57:59;;;;;;;46.53;29.73;;;;;;;7.70;91.67;99418.88;5048085;28;20029;-81
2023/11/22 02:00:30;;;;;;;45.00;27.88;;;;;;;7.50;91.57;99402.28;5048276;28;20021;-83
2023/11/22 02:02:56;;;;;;;43.50;28.50;;;;;;;7.94;90.30;99425.22;5048127;28;20063;-81
2023/11/22 02:05:21;;;;;;;52.13;30.20;;;;;;;8.30;87.68;99434.31;5049393;28;20104;-81
2023/11/22 02:07:47;;;;;;;51.28;29.98;;;;;;;8.33;86.80;99427.75;5049424;28;20037;-82
2023/11/22 02:10:12;;;;;;;46.42;29.60;;;;;;;8.35;85.58;99423.81;5049321;28;21109;-81
2023/11/22 02:12:38;;;;;;;49.20;29.05;;;;;;;8.30;85.21;99389.16;5049237;28;20086;-81
2023/11/22 02:15:05;;;;;;;47.80;29.25;;;;;;;8.20;87.12;99407.44;5061055;28;20025;-81
2023/11/22 02:17:31;;;;;;;44.67;26.35;;;;;;;7.71;90.56;99399.28;5048164;28;20090;-84
2023/11/22 02:19:56;;;;;;;43.50;26.30;;;;;;;7.52;91.81;99374.53;5047967;28;20029;-82
2023/11/22 02:22:22;;;;;;;46.88;27.30;;;;;;;7.78;90.73;99385.94;5048087;28;20106;-82
2023/11/22 02:24:47;;;;;;;44.17;28.45;;;;;;;7.77;91.25;99381.69;5055025;28;20512;-81
2023/11/22 02:27:13;;;;;;;49.33;28.15;;;;;;;8.03;90.09;99386.75;5049472;28;20033;-81
2023/11/22 02:29:38;;;;;;;50.97;29.45;;;;;;;8.04;90.26;99376.94;5049150;28;20029;-81
2023/11/22 02:32:04;;;;;;;50.15;28.38;;;;;;;8.10;89.43;99369.94;5048884;28;20026;-81
2023/11/22 02:34:29;;;;;;;47.10;27.27;;;;;;;7.99;90.75;99364.34;5050974;28;20436;-81
2023/11/22 02:36:55;;;;;;;42.50;25.83;;;;;;;8.00;91.22;99373.09;5069355;28;20033;-81
2023/11/22 02:39:21;;;;;;;48.40;27.33;;;;;;;7.91;92.56;99367.28;5069202;28;20025;-80
2023/11/22 02:41:48;;;;;;;45.47;27.58;;;;;;;8.34;90.15;99371.75;5068001;28;20090;-81
2023/11/22 02:44:17;;;;;;;47.53;27.60;;;;;;;8.16;89.85;99350.47;5056264;28;20021;-81
2023/11/22 02:46:43;;;;;;;45.13;27.08;;;;;;;8.36;89.23;99379.50;5050796;28;20060;-81
2023/11/22 02:49:09;;;;;;;40.85;26.52;;;;;;;8.35;89.05;99365.38;5047895;28;20065;-83
2023/11/22 02:51:35;;;;;;;45.85;26.45;;;;;;;8.01;88.59;99309.16;5049090;28;20049;-83
2023/11/22 02:54:00;;;;;;;40.50;26.02;;;;;;;8.36;89.21;99388.28;5048934;28;20043;-81
2023/11/22 02:56:28;;;;;;;39.33;23.98;;;;;;;8.06;91.89;99396.13;5051723;28;20448;-81
2023/11/22 02:58:53;;;;;;;42.15;25.65;;;;;;;8.07;91.50;99389.78;5051453;28;20458;-81
2023/11/22 03:01:19;;;;;;;40.97;24.58;;;;;;;8.03;92.12;99394.72;5051675;28;20534;-80
2023/11/22 03:03:45;;;;;;;38.45;25.08;;;;;;;7.94;92.81;99388.06;5058818;28;20038;-81
2023/11/22 03:06:10;;;;;;;40.35;24.80;;;;;;;8.01;90.46;99362.28;5057016;28;20091;-82
2023/11/22 03:08:35;;;;;;;40.92;26.92;;;;;;;7.96;91.45;99369.25;5052675;28;20371;-81
2023/11/22 03:11:02;;;;;;;47.55;28.60;;;;;;;7.99;91.43;99390.88;5050860;28;20406;-82
2023/11/22 03:13:27;;;;;;;39.63;25.48;;;;;;;7.95;91.85;99395.00;5051077;28;20025;-82
2023/11/22 03:15:53;;;;;;;38.58;24.65;;;;;;;8.09;90.50;99392.22;5057885;28;20120;-80
2023/11/22 03:18:18;;;;;;;36.20;22.70;;;;;;;8.28;89.09;99401.84;5051028;28;20298;-82
2023/11/22 03:20:44;;;;;;;34.10;22.98;;;;;;;8.01;91.86;99426.00;5050994;28;20078;-81
2023/11/22 03:23:10;;;;;;;35.63;22.92;;;;;;;7.87;93.35;99408.56;5050583;28;20035;-81
2023/11/22 03:25:36;;;;;;;38.42;24.23;;;;;;;7.92;93.46;99424.63;5056712;28;20037;-80
2023/11/22 03:28:02;;;;;;;40.78;24.00;;;;;;;7.76;93.56;99417.22;5050923;28;20032;-81
2023/11/22 03:30:27;;;;;;;42.90;24.05;;;;;;;8.10;91.98;99415.91;5051581;28;20037;-81
2023/11/22 03:32:54;;;;;;;38.30;23.90;;;;;;;8.38;90.72;99417.28;5050729;28;20496;-80
2023/11/22 03:35:19;;;;;;;38.58;22.75;;;;;;;7.84;93.22;99371.81;5054757;28;20108;-80
2023/11/22 03:37:45;;;;;;;39.72;23.25;;;;;;;7.95;93.36;99384.38;5050622;28;20169;-81
2023/11/22 03:40:11;;;;;;;36.03;22.63;;;;;;;7.86;95.13;99401.59;5050775;28;20040;-81
2023/11/22 03:42:38;;;;;;;36.67;23.40;;;;;;;8.08;93.86;99374.66;5052174;28;20090;-81
2023/11/22 03:45:05;;;;;;;38.08;24.00;;;;;;;8.21;91.75;99380.66;5050725;28;20441;-82
2023/11/22 03:47:32;;;;;;;39.53;23.88;;;;;;;7.95;94.99;99389.69;5050607;28;20032;-81
2023/11/22 03:49:59;;;;;;;37.90;24.60;;;;;;;7.42;96.89;99331.75;5051638;28;20045;-81
2023/11/22 03:52:25;;;;;;;38.33;22.35;;;;;;;7.36;100.00;99375.06;5050072;28;20160;-81
2023/11/22 03:54:50;;;;;;;39.75;24.48;;;;;;;7.61;99.71;99383.84;5050099;28;20108;-81
2023/11/22 03:57:16;;;;;;;45.22;25.40;;;;;;;7.80;97.71;99384.69;5050662;28;20044;-82
2023/11/22 03:59:43;;;;;;;41.03;25.42;;;;;;;7.68;96.90;99393.59;5050047;28;20032;-81
2023/11/22 04:02:08;;;;;;;50.47;26.45;;;;;;;7.76;95.68;99409.25;5049915;28;20032;-81
2023/11/22 04:04:34;;;;;;;47.97;26.35;;;;;;;7.85;95.61;99402.66;5049601;28;20059;-81
2023/11/22 04:07:00;;;;;;;51.72;27.30;;;;;;;7.75;95.80;99405.78;5050225;28;20032;-81
2023/11/22 04:09:25;;;;;;;52.88;27.75;;;;;;;7.69;95.75;99411.16;5049624;28;20812;-82
2023/11/22 04:11:50;;;;;;;52.78;26.63;;;;;;;7.84;92.23;99399.16;5049757;28;20036;-81
2023/11/22 04:14:16;;;;;;;46.65;25.45;;;;;;;7.78;92.55;99421.25;5050881;28;20029;-82
2023/11/22 04:16:41;;;;;;;50.75;25.33;;;;;;;7.37;95.90;99424.41;5050034;28;20110;-81
2023/11/22 04:19:07;;;;;;;43.40;24.63;;;;;;;7.63;92.81;99410.97;5051078;28;20029;-81
2023/11/22 04:21:32;;;;;;;43.65;24.08;;;;;;;7.60;92.65;99439.78;5050028;28;20025;-82
2023/11/22 04:23:58;;;;;;;44.20;25.10;;;;;;;7.86;90.14;99428.16;5049948;28;20029;-81
2023/11/22 04:26:24;;;;;;;46.75;24.95;;;;;;;8.13;88.37;99450.00;5048585;28;20036;-81
2023/11/22 04:28:50;;;;;;;42.80;25.55;;;;;;;7.97;88.87;99424.00;5051065;28;20033;-81
2023/11/22 04:31:15;;;;;;;42.78;25.58;;;;;;;7.98;89.24;99422.97;5049688;28;20044;-84
2023/11/22 04:33:40;;;;;;;42.95;25.90;;;;;;;7.93;90.04;99428.94;5049874;28;20025;-82
2023/11/22 04:36:06;;;;;;;43.78;25.38;;;;;;;7.81;89.29;99399.59;5057573;28;20132;-81
2023/11/22 04:38:33;;;;;;;42.38;26.65;;;;;;;7.58;92.84;99425.91;5051206;28;20072;-81
2023/11/22 04:40:59;;;;;;;47.17;26.40;;;;;;;8.03;90.81;99428.44;5049701;28;20481;-84
2023/11/22 04:43:24;;;;;;;47.30;26.50;;;;;;;8.00;90.39;99428.88;5049270;28;20032;-82
2023/11/22 04:45:50;;;;;;;44.70;26.42;;;;;;;7.68;91.87;99404.22;5054098;28;20034;-81
2023/11/22 04:48:15;;;;;;;42.05;25.92;;;;;;;7.75;92.31;99421.72;5067928;28;20032;-83
2023/11/22 04:50:42;;;;;;;46.00;25.98;;;;;;;7.18;95.84;99378.44;5069178;28;20480;-82
2023/11/22 04:53:09;;;;;;;47.63;26.80;;;;;;;7.49;96.07;99422.72;5069231;28;20051;-81
2023/11/22 04:55:34;;;;;;;41.67;24.70;;;;;;;7.61;95.73;99428.94;5060465;28;20025;-81
2023/11/22 04:58:00;;;;;;;43.15;25.90;;;;;;;7.95;94.42;99432.19;5063895;28;20090;-81
2023/11/22 05:00:25;;;;;;;42.05;25.88;;;;;;;8.14;92.31;99432.22;5069932;28;20029;-83
2023/11/22 05:02:50;;;;;;;44.45;25.83;;;;;;;8.04;92.55;99424.75;5069132;28;20021;-82
2023/11/22 05:05:16;;;;;;;42.58;27.42;;;;;;;8.04;91.48;99451.28;5069121;28;20382;-83
2023/11/22 05:07:42;;;;;;;43.53;25.83;;;;;;;7.42;93.81;99411.34;5050740;28;20037;-83
2023/11/22 05:10:10;;;;;;;43.42;27.30;;;;;;;8.00;92.43;99477.47;5055755;28;20060;-82
2023/11/22 05:12:36;;;;;;;46.42;28.45;;;;;;;8.31;90.37;99478.44;5058948;28;20032;-84
2023/11/22 05:15:02;;;;;;;44.53;27.50;;;;;;;8.12;91.08;99496.16;5056878;28;20029;-83
2023/11/22 05:17:27;;;;;;;48.03;28.95;;;;;;;7.56;93.16;99468.59;5068442;28;20078;-82
2023/11/22 05:19:53;;;;;;;46.97;28.23;;;;;;;7.73;93.94;99513.19;5057232;28;20475;-84
2023/11/22 05:22:18;;;;;;;44.90;28.25;;;;;;;7.90;92.24;99492.25;5058739;28;20029;-83
2023/11/22 05:24:44;;;;;;;48.63;29.05;;;;;;;7.66;92.35;99481.38;5057292;28;20043;-84
2023/11/22 05:27:09;;;;;;;47.25;29.25;;;;;;;7.97;91.65;99501.00;5066489;28;20086;-82
2023/11/22 05:29:35;;;;;;;44.80;26.70;;;;;;;8.21;90.17;99508.16;5059299;28;20399;-83
2023/11/22 05:32:02;;;;;;;43.83;25.77;;;;;;;7.97;92.82;99507.13;5057745;28;20029;-82
2023/11/22 05:34:30;;;;;;;38.38;23.42;;;;;;;8.00;92.55;99482.78;5054300;28;20020;-81
2023/11/22 05:36:56;;;;;;;40.25;23.60;;;;;;;7.74;95.27;99488.28;5056027;28;20116;-81
2023/11/22 05:39:24;;;;;;;36.90;22.13;;;;;;;8.00;93.10;99482.78;5051803;28;20112;-82
2023/11/22 05:41:50;;;;;;;;;;;;;;;8.15;93.56;99513.50;5053886;28;20029;-81
2023/11/22 05:44:16;;;;;;;40.65;22.77;;;;;;;8.03;93.94;99494.81;5051990;28;19909;-82
2023/11/22 05:46:41;;;;;;;37.75;20.48;;;;;;;8.13;94.06;99503.13;5063787;28;20173;-82
2023/11/22 05:49:07;;;;;;;35.22;22.13;;;;;;;8.24;94.04;99518.34;5057736;28;20032;-82
2023/11/22 05:51:33;;;;;;;36.67;21.60;;;;;;;8.04;93.64;99483.16;5051142;28;20087;-82
2023/11/22 05:53:59;;;;;;;36.53;21.08;;;;;;;7.77;96.81;99479.91;5051418;28;20045;-81
2023/11/22 05:56:25;;;;;;;34.50;22.45;;;;;;;8.11;95.82;99477.78;5059491;28;20703;-81
2023/11/22 05:58:50;;;;;;;35.97;21.85;;;;;;;8.20;95.51;99484.47;5051628;28;20048;-83
2023/11/22 06:01:15;;;;;;;35.25;21.80;;;;;;;8.18;95.93;99505.13;5051054;28;20395;-80
2023/11/22 06:03:42;;;;;;;33.83;21.00;;;;;;;8.41;94.10;99515.16;5049296;28;20104;-81
2023/11/22 06:06:07;;;;;;;37.45;24.05;;;;;;;8.33;93.75;99513.56;5057351;28;20075;-82
2023/11/22 06:08:33;;;;;;;42.08;25.95;;;;;;;8.11;95.39;99509.66;5059821;28;20119;-80
2023/11/22 06:10:59;;;;;;;39.45;26.08;;;;;;;8.16;94.94;99508.00;5050029;28;20413;-80
2023/11/22 06:13:25;;;;;;;36.20;21.20;;;;;;;8.42;95.91;99511.50;5048652;28;20029;-80
2023/11/22 06:15:51;;;;;;;38.97;25.85;;;;;;;8.24;96.37;99499.75;5048504;28;20059;-80
2023/11/22 06:18:18;;;;;;;38.00;22.75;;;;;;;7.87;100.00;99513.91;5059516;28;20272;-79
2023/11/22 06:20:44;;;;;;;36.30;22.67;;;;;;;8.00;100.00;99574.91;5049730;28;20035;-79
2023/11/22 06:23:10;;;;;;;33.60;20.00;;;;;;;8.08;100.00;99584.47;5047999;28;20504;-81
2023/11/22 06:25:41;;;;;;;35.13;21.23;;;;;;;8.25;100.00;99556.34;5049107;28;20498;-81
2023/11/22 06:28:07;;;;;;;36.92;22.20;;;;;;;8.24;100.00;99589.25;5054981;28;20032;-80
2023/11/22 06:30:32;;;;;;;35.55;21.95;;;;;;;8.16;100.00;99576.25;5051672;28;20025;-80
2023/11/22 06:32:58;;;;;;;38.03;22.13;;;;;;;7.95;100.00;99570.25;5051980;28;20028;-82
2023/11/22 06:35:24;;;;;;;39.08;23.17;;;;;;;8.40;100.00;99567.47;5052685;28;20029;-81
2023/11/22 06:37:49;;;;;;;34.78;21.77;;;;;;;8.25;100.00;99596.19;5054826;28;20107;-80
2023/11/22 06:40:16;;;;;;;40.00;23.33;;;;;;;7.93;100.00;99574.16;5054962;28;20029;-80
2023/11/22 06:42:42;;;;;;;36.28;22.58;;;;;;;8.38;100.00;99617.34;5053310;28;20025;-81
2023/11/22 06:45:12;;;;;;;36.42;22.10;;;;;;;7.96;100.00;99577.16;5051155;28;20503;-81
2023/11/22 06:47:41;;;;;;;37.65;21.75;;;;;;;8.30;100.00;99630.91;5058353;28;20028;-81
2023/11/22 06:50:09;;;;;;;30.77;20.42;;;;;;;8.33;100.00;99592.47;5056971;28;20057;-80
2023/11/22 06:52:38;;;;;;;31.35;19.92;;;;;;;8.62;100.00;99618.44;5051139;28;20021;-81
2023/11/22 06:55:05;;;;;;;31.27;20.42;;;;;;;8.32;100.00;99612.09;5050834;28;20043;-80
2023/11/22 06:57:31;;;;;;;31.77;20.38;;;;;;;8.44;100.00;99586.50;5059092;28;20167;-80
2023/11/22 06:59:57;;;;;;;29.45;20.65;;;;;;;8.56;100.00;99570.63;5052282;28;20107;-83
2023/11/22 07:02:22;;;;;;;35.05;22.08;;;;;;;8.66;100.00;99586.91;5050797;28;20164;-81
2023/11/22 07:04:48;;;;;;;30.80;22.48;;;;;;;8.82;100.00;99606.81;5052241;28;20040;-80
2023/11/22 07:07:14;;;;;;;32.28;20.90;;;;;;;8.99;100.00;99597.25;5052209;28;20704;-80
2023/11/22 07:09:44;;;;;;;35.28;23.90;;;;;;;9.13;100.00;99619.19;5055317;28;20037;-80
2023/11/22 07:12:10;;;;;;;51.13;36.83;;;;;;;8.57;100.00;99598.84;5050759;28;20025;-80
2023/11/22 07:14:36;;;;;;;49.53;33.78;;;;;;;8.83;100.00;99630.53;5052031;28;20029;-82
2023/11/22 07:17:02;;;;;;;44.95;31.50;;;;;;;9.14;100.00;99607.53;5059181;28;20036;-80
2023/11/22 07:19:28;;;;;;;48.05;33.92;;;;;;;9.00;100.00;99588.22;5058043;28;20032;-80
2023/11/22 07:21:53;;;;;;;41.63;29.67;;;;;;;8.84;100.00;99589.59;5052422;28;20021;-80
2023/11/22 07:24:19;;;;;;;35.78;24.45;;;;;;;9.01;100.00;99610.31;5050440;28;20021;-80
2023/11/22 07:26:44;;;;;;;37.55;23.95;;;;;;;9.31;100.00;99630.88;5052107;28;20036;-82
2023/11/22 07:29:11;;;;;;;85.15;58.42;;;;;;;9.39;100.00;99618.09;5057639;28;20486;-79
2023/11/22 07:31:37;;;;;;;71.30;48.70;;;;;;;9.25;100.00;99595.34;5051740;28;20036;-80
2023/11/22 07:34:03;;;;;;;52.33;36.47;;;;;;;9.40;100.00;99608.28;5050290;28;20025;-80
2023/11/22 07:36:28;;;;;;;41.28;27.88;;;;;;;9.50;100.00;99603.25;5051042;28;20032;-80
2023/11/22 07:38:54;;;;;;;33.78;23.13;;;;;;;9.52;100.00;99595.84;5061198;28;20029;-80
2023/11/22 07:41:21;;;;;;;36.20;26.15;;;;;;;9.72;100.00;99621.41;5051508;28;20052;-80
2023/11/22 07:43:46;;;;;;;36.83;24.92;;;;;;;9.37;100.00;99601.53;5051047;28;20114;-80
2023/11/22 07:46:12;;;;;;;34.78;22.13;;;;;;;9.45;100.00;99629.72;5050717;28;20480;-79
2023/11/22 07:48:49;;;;;;;32.42;22.40;;;;;;;9.32;100.00;99605.91;5054077;28;20033;-80
2023/11/22 07:51:17;;;;;;;35.42;21.63;;;;;;;9.43;100.00;99621.13;5052262;28;20553;-80
2023/11/22 07:53:43;;;;;;;34.85;22.55;;;;;;;9.57;100.00;99627.94;5049515;28;20417;-80
2023/11/22 07:56:09;;;;;;;33.63;22.08;;;;;;;9.40;100.00;99618.94;5050622;28;20037;-80
2023/11/22 07:58:35;;;;;;;33.88;22.00;;;;;;;9.37;100.00;99630.00;5056160;28;20028;-80
2023/11/22 08:01:06;;;;;;;34.30;21.92;;;;;;;9.56;100.00;99626.31;5054601;28;20119;-79
2023/11/22 08:03:31;;;;;;;35.58;22.20;;;;;;;9.44;100.00;99606.81;5049095;28;20048;-81
2023/11/22 08:05:57;;;;;;;43.58;29.67;;;;;;;9.61;100.00;99607.81;5050755;28;20093;-80
2023/11/22 08:08:23;;;;;;;53.45;35.95;;;;;;;9.75;100.00;99621.78;5050576;28;20074;-80
2023/11/22 08:10:51;;;;;;;45.15;25.77;;;;;;;9.53;100.00;99613.44;5056403;28;20498;-79
2023/11/22 08:13:19;;;;;;;49.58;31.05;;;;;;;9.57;100.00;99635.91;5050583;28;20100;-79
2023/11/22 08:15:46;;;;;;;44.58;26.52;;;;;;;9.52;100.00;99616.31;5049505;28;20045;-80
2023/11/22 08:18:13;;;;;;;38.67;23.92;;;;;;;9.47;100.00;99618.84;5052313;28;20017;-80
2023/11/22 08:20:39;;;;;;;34.20;23.15;;;;;;;9.74;100.00;99617.47;5051312;28;20526;-81
2023/11/22 08:23:06;;;;;;;33.97;22.98;;;;;;;9.67;100.00;99610.63;5049389;28;20024;-78
2023/11/22 08:25:32;;;;;;;31.55;22.27;;;;;;;9.58;100.00;99637.56;5050675;28;20036;-80
2023/11/22 08:27:57;;;;;;;34.17;22.52;;;;;;;9.56;100.00;99628.97;5049290;28;20029;-83
2023/11/22 08:30:23;;;;;;;36.42;22.90;;;;;;;9.77;100.00;99617.03;5055029;28;20409;-80
2023/11/22 08:32:53;;;;;;;42.72;27.40;;;;;;;10.10;100.00;99634.44;5049391;28;20159;-80
2023/11/22 08:35:21;;;;;;;40.72;25.38;;;;;;;9.89;100.00;99622.44;5049360;28;20116;-81
2023/11/22 08:37:47;;;;;;;30.17;21.45;;;;;;;9.88;100.00;99630.63;5055080;28;20028;-81
2023/11/22 08:40:14;;;;;;;39.88;26.60;;;;;;;10.03;100.00;99650.53;5058518;28;20028;-81
2023/11/22 08:42:40;;;;;;;35.88;25.30;;;;;;;9.86;100.00;99610.34;5049155;28;20020;-81
2023/11/22 08:45:08;;;;;;;36.72;25.73;;;;;;;9.70;100.00;99636.78;5050624;28;20020;-84
2023/11/22 08:47:33;;;;;;;37.95;27.10;;;;;;;9.88;100.00;99639.44;5050403;28;20553;-81
2023/11/22 08:49:59;;;;;;;44.22;31.02;;;;;;;9.90;100.00;99650.69;5054709;28;20139;-82
2023/11/22 08:52:24;;;;;;;46.88;30.90;;;;;;;9.91;100.00;99630.16;5048992;28;20082;-80
2023/11/22 08:54:51;;;;;;;47.78;29.20;;;;;;;9.92;100.00;99632.63;5049833;28;20125;-81
2023/11/22 08:57:17;;;;;;;51.35;33.42;;;;;;;10.00;100.00;99645.63;5049830;28;20094;-80
2023/11/22 08:59:42;;;;;;;53.15;38.58;;;;;;;10.05;100.00;99653.78;5053975;28;20496;-81
2023/11/22 09:02:08;;;;;;;47.05;30.05;;;;;;;10.05;100.00;99642.28;5048757;28;20443;-81
2023/11/22 09:04:33;;;;;;;42.75;28.40;;;;;;;10.29;100.00;99643.19;5048667;28;20409;-81
2023/11/22 09:07:00;;;;;;;41.15;25.63;;;;;;;10.49;100.00;99642.94;5049593;28;20094;-82
2023/11/22 09:09:30;;;;;;;45.90;30.88;;;;;;;10.48;100.00;99643.94;5051314;28;20032;-82
2023/11/22 09:11:59;;;;;;;48.35;32.67;;;;;;;10.50;100.00;99649.91;5049964;28;20048;-81
2023/11/22 09:14:25;;;;;;;43.33;28.35;;;;;;;10.35;100.00;99630.84;5048328;28;20483;-80
2023/11/22 09:16:54;;;;;;;50.47;33.58;;;;;;;10.44;100.00;99640.13;5048412;28;20494;-82
2023/11/22 09:19:21;;;;;;;66.93;43.55;;;;;;;10.48;100.00;99635.16;5051293;28;20072;-82
2023/11/22 09:21:46;;;;;;;77.45;47.00;;;;;;;10.56;100.00;99653.47;5055816;28;20100;-81
2023/11/22 09:24:12;;;;;;;73.03;46.10;;;;;;;10.53;100.00;99637.94;5048414;28;20020;-81
2023/11/22 09:26:38;;;;;;;76.50;47.58;;;;;;;10.83;100.00;99659.22;5049782;28;20037;-81
2023/11/22 09:29:04;;;;;;;70.80;43.72;;;;;;;10.86;100.00;99640.06;5047880;28;20121;-81
2023/11/22 09:31:33;;;;;;;57.47;37.15;;;;;;;10.94;100.00;99636.25;5057862;28;20029;-81
2023/11/22 09:33:58;;;;;;;113.35;87.82;;;;;;;11.09;100.00;99641.13;5049492;28;20384;-81
2023/11/22 09:36:29;;;;;;;55.15;42.70;;;;;;;11.05;100.00;99620.25;5048976;28;20028;-81
2023/11/22 09:38:55;;;;;;;38.33;27.23;;;;;;;10.86;100.00;99576.84;5048196;28;20090;-81
2023/11/22 09:41:21;;;;;;;50.22;44.75;;;;;;;11.03;100.00;99621.50;5053988;28;20683;-81
2023/11/22 09:43:49;;;;;;;38.10;28.27;;;;;;;11.03;100.00;99621.50;5049063;28;20094;-83
2023/11/22 09:46:17;;;;;;;59.63;50.05;;;;;;;11.09;100.00;99641.13;5048095;28;20090;-81
2023/11/22 09:48:45;;;;;;;33.78;25.95;;;;;;;11.16;100.00;99631.97;5047879;28;20091;-81
2023/11/22 09:51:11;;;;;;;33.25;23.15;;;;;;;11.19;100.00;99636.00;5049984;28;20064;-82
2023/11/22 09:53:40;;;;;;;33.55;25.48;;;;;;;11.19;100.00;99658.16;5049284;28;20260;-83
2023/11/22 09:56:09;;;;;;;32.67;22.15;;;;;;;11.22;100.00;99627.56;5049062;28;20490;-85
2023/11/22 09:58:37;;;;;;;29.88;22.52;;;;;;;11.14;100.00;99623.38;5049290;28;20044;-82
2023/11/22 10:01:07;;;;;;;36.35;25.90;;;;;;;11.12;100.00;99638.81;5056231;28;20211;-81
2023/11/22 10:03:33;;;;;;;37.80;23.80;;;;;;;11.30;100.00;99626.38;5048047;28;20037;-82
2023/11/22 10:05:59;;;;;;;39.47;26.60;;;;;;;11.37;100.00;99643.09;5048907;28;20037;-81
2023/11/22 10:08:29;;;;;;;41.10;25.85;;;;;;;11.37;100.00;99629.72;5048038;28;20100;-81
2023/11/22 10:10:55;;;;;;;40.22;26.65;;;;;;;11.30;100.00;99637.03;5055766;28;20025;-81
2023/11/22 10:13:24;;;;;;;37.42;24.55;;;;;;;11.38;100.00;99655.38;5048652;28;20033;-81
2023/11/22 10:15:50;;;;;;;39.85;30.08;;;;;;;11.47;100.00;99637.97;5047982;28;20035;-82
2023/11/22 10:18:19;;;;;;;45.58;29.48;;;;;;;11.49;100.00;99640.41;5047744;28;20029;-82
2023/11/22 10:20:49;;;;;;;37.72;26.13;;;;;;;11.50;100.00;99634.00;5053974;28;20089;-83
2023/11/22 10:23:16;;;;;;;33.80;22.45;;;;;;;11.43;100.00;99615.44;5068851;28;20024;-81
2023/11/22 10:25:52;;;;;;;34.17;22.80;;;;;;;11.89;100.00;99632.44;5067723;28;20493;-81
2023/11/22 10:28:23;;;;;;;35.83;24.42;;;;;;;11.58;100.00;99612.28;5069313;28;20397;-82
2023/11/22 10:30:51;;;;;;;34.72;23.60;;;;;;;11.64;100.00;99638.84;5058375;28;20029;-81
2023/11/22 10:33:17;;;;;;;31.93;24.70;;;;;;;11.63;100.00;99641.75;5047504;28;20119;-87
2023/11/22 10:35:48;;;;;;;34.33;23.63;;;;;;;11.51;100.00;99628.44;5048056;28;20469;-82
2023/11/22 10:38:17;;;;;;;35.15;23.25;;;;;;;11.22;100.00;99625.69;5049068;28;20072;-83
2023/11/22 10:40:45;;;;;;;34.88;24.30;;;;;;;11.44;100.00;99635.75;5050444;28;20505;-80
2023/11/22 10:43:12;;;;;;;35.92;25.52;;;;;;;11.64;100.00;99654.84;5047726;28;20041;-81
2023/11/22 10:45:38;;;;;;;38.17;25.13;;;;;;;11.51;100.00;99660.47;5049097;28;20071;-81
2023/11/22 10:48:05;;;;;;;36.15;25.60;;;;;;;11.57;100.00;99634.69;5047538;28;20488;-81
2023/11/22 10:50:32;;;;;;;35.20;25.20;;;;;;;11.55;100.00;99618.91;5055748;28;20840;-81
2023/11/22 10:53:00;;;;;;;36.00;24.52;;;;;;;11.75;100.00;99631.03;5050022;28;20421;-82
2023/11/22 10:55:31;;;;;;;32.35;24.67;;;;;;;11.68;100.00;99619.69;5048981;28;20090;-81
2023/11/22 10:58:03;;;;;;;38.97;25.38;;;;;;;11.91;100.00;99633.00;5047716;28;20029;-82
2023/11/22 11:00:34;;;;;;;35.28;24.48;;;;;;;11.98;100.00;99625.63;5057274;28;20033;-82
2023/11/22 11:03:09;;;;;;;34.15;23.63;;;;;;;11.82;100.00;99656.56;5047986;28;20029;-82
2023/11/22 11:05:37;;;;;;;38.10;24.80;;;;;;;11.81;100.00;99646.94;5047465;28;20033;-81
2023/11/22 11:08:11;;;;;;;;;;;;;;;11.73;100.00;99662.50;5047893;28;20059;-83
2023/11/22 11:10:43;;;;;;;33.22;23.65;;;;;;;11.73;100.00;99638.47;5057055;28;20309;-81
2023/11/22 11:13:10;;;;;;;35.90;23.88;;;;;;;11.79;100.00;99650.88;5048708;28;20098;-82
2023/11/22 11:15:41;;;;;;;35.13;24.08;;;;;;;11.64;100.00;99648.72;5050737;28;20021;-81
2023/11/22 11:18:10;;;;;;;32.05;23.92;;;;;;;11.46;100.00;99650.50;5052102;28;20083;-81